sensor_id;sensor_type;location;lat;lon;timestamp;temperature;humidity
64032;DHT22;50278;47.796;11.968;2022-07-06T00:01:27;17.49;118.99
64032;DHT22;50278;47.796;11.968;2022-07-06T00:03:52;17.63;118.99
64032;DHT22;50278;47.796;11.968;2022-07-06T00:06:18;17.74;118.99
64032;DHT22;50278;47.796;11.968;2022-07-06T00:08:43;17.72;118.99
64032;DHT22;50278;47.796;11.968;2022-07-06T00:11:10;17.67;118.99
64032;DHT22;50278;47.796;11.968;2022-07-06T00:13:36;17.79;118.99
64032;DHT22;50278;47.796;11.968;2022-07-06T00:16:01;17.94;118.99
64032;DHT22;50278;47.796;11.968;2022-07-06T00:18:27;17.88;118.99
64032;DHT22;50278;47.796;11.968;2022-07-06T00:20:52;18.07;118.99
64032;DHT22;50278;47.796;11.968;2022-07-06T00:23:18;18.27;118.99
64032;DHT22;50278;47.796;11.968;2022-07-06T00:25:44;18.48;118.99
64032;DHT22;50278;47.796;11.968;2022-07-06T00:28:10;18.47;118.99
64032;DHT22;50278;47.796;11.968;2022-07-06T00:30:36;18.65;118.99
64032;DHT22;50278;47.796;11.968;2022-07-06T00:33:01;18.48;118.99
64032;DHT22;50278;47.796;11.968;2022-07-06T00:35:27;18.58;118.99
64032;DHT22;50278;47.796;11.968;2022-07-06T00:37:53;18.76;118.99
64032;DHT22;50278;47.796;11.968;2022-07-06T00:40:19;18.91;118.99
64032;DHT22;50278;47.796;11.968;2022-07-06T00:42:45;18.99;118.99
64032;DHT22;50278;47.796;11.968;2022-07-06T00:45:12;18.92;118.99
64032;DHT22;50278;47.796;11.968;2022-07-06T00:47:39;18.92;118.99
64032;DHT22;50278;47.796;11.968;2022-07-06T00:50:06;18.76;118.99
64032;DHT22;50278;47.796;11.968;2022-07-06T00:52:43;18.83;118.99
64032;DHT22;50278;47.796;11.968;2022-07-06T00:55:09;18.77;118.99
64032;DHT22;50278;47.796;11.968;2022-07-06T00:57:36;18.94;118.99
64032;DHT22;50278;47.796;11.968;2022-07-06T01:00:04;18.87;118.99
64032;DHT22;50278;47.796;11.968;2022-07-06T01:02:31;19.10;118.99
64032;DHT22;50278;47.796;11.968;2022-07-06T01:04:57;19.22;118.99
64032;DHT22;50278;47.796;11.968;2022-07-06T01:07:23;19.20;118.99
64032;DHT22;50278;47.796;11.968;2022-07-06T01:09:48;18.98;118.99
64032;DHT22;50278;47.796;11.968;2022-07-06T01:12:14;18.79;118.99
64032;DHT22;50278;47.796;11.968;2022-07-06T01:14:40;18.62;118.99
64032;DHT22;50278;47.796;11.968;2022-07-06T01:17:07;18.38;118.99
64032;DHT22;50278;47.796;11.968;2022-07-06T01:19:32;18.06;118.99
64032;DHT22;50278;47.796;11.968;2022-07-06T01:21:58;17.83;118.99
64032;DHT22;50278;47.796;11.968;2022-07-06T01:24:25;17.55;118.99
64032;DHT22;50278;47.796;11.968;2022-07-06T01:26:51;17.20;118.99
64032;DHT22;50278;47.796;11.968;2022-07-06T01:29:17;17.07;118.99
64032;DHT22;50278;47.796;11.968;2022-07-06T01:31:50;17.04;118.99
64032;DHT22;50278;47.796;11.968;2022-07-06T01:34:19;16.90;118.99
64032;DHT22;50278;47.796;11.968;2022-07-06T01:36:45;16.82;118.99
64032;DHT22;50278;47.796;11.968;2022-07-06T01:39:11;16.71;118.99
64032;DHT22;50278;47.796;11.968;2022-07-06T01:41:37;16.61;118.99
64032;DHT22;50278;47.796;11.968;2022-07-06T01:44:04;16.59;118.99
64032;DHT22;50278;47.796;11.968;2022-07-06T01:46:30;16.59;118.99
64032;DHT22;50278;47.796;11.968;2022-07-06T01:48:56;16.51;118.99
64032;DHT22;50278;47.796;11.968;2022-07-06T01:51:22;16.37;118.99
64032;DHT22;50278;47.796;11.968;2022-07-06T01:53:48;16.29;118.99
64032;DHT22;50278;47.796;11.968;2022-07-06T01:56:16;16.17;118.99
64032;DHT22;50278;47.796;11.968;2022-07-06T01:58:48;16.15;118.99
64032;DHT22;50278;47.796;11.968;2022-07-06T02:01:19;15.99;118.99
64032;DHT22;50278;47.796;11.968;2022-07-06T02:03:46;15.95;118.99
64032;DHT22;50278;47.796;11.968;2022-07-06T02:06:12;15.96;118.99
64032;DHT22;50278;47.796;11.968;2022-07-06T02:08:38;15.90;118.99
64032;DHT22;50278;47.796;11.968;2022-07-06T02:11:08;15.83;118.99
64032;DHT22;50278;47.796;11.968;2022-07-06T02:13:36;15.75;118.99
64032;DHT22;50278;47.796;11.968;2022-07-06T02:16:04;15.69;118.99
64032;DHT22;50278;47.796;11.968;2022-07-06T02:18:30;15.70;118.99
64032;DHT22;50278;47.796;11.968;2022-07-06T02:20:56;15.65;118.99
64032;DHT22;50278;47.796;11.968;2022-07-06T02:23:22;15.61;118.99
64032;DHT22;50278;47.796;11.968;2022-07-06T02:25:48;15.57;118.99
64032;DHT22;50278;47.796;11.968;2022-07-06T02:28:14;15.55;118.99
64032;DHT22;50278;47.796;11.968;2022-07-06T02:30:40;15.56;118.99
64032;DHT22;50278;47.796;11.968;2022-07-06T02:33:06;15.61;118.99
64032;DHT22;50278;47.796;11.968;2022-07-06T02:35:32;15.66;118.99
64032;DHT22;50278;47.796;11.968;2022-07-06T02:37:58;15.69;118.99
64032;DHT22;50278;47.796;11.968;2022-07-06T02:40:23;15.78;118.99
64032;DHT22;50278;47.796;11.968;2022-07-06T02:42:50;15.82;118.99
64032;DHT22;50278;47.796;11.968;2022-07-06T02:45:16;15.82;118.99
64032;DHT22;50278;47.796;11.968;2022-07-06T02:47:42;15.80;118.99
64032;DHT22;50278;47.796;11.968;2022-07-06T02:50:08;15.86;118.99
64032;DHT22;50278;47.796;11.968;2022-07-06T02:52:34;15.75;118.99
64032;DHT22;50278;47.796;11.968;2022-07-06T02:55:01;15.82;118.99
64032;DHT22;50278;47.796;11.968;2022-07-06T02:57:27;15.78;118.99
64032;DHT22;50278;47.796;11.968;2022-07-06T02:59:52;15.68;118.99
64032;DHT22;50278;47.796;11.968;2022-07-06T03:02:18;15.69;118.99
64032;DHT22;50278;47.796;11.968;2022-07-06T03:04:44;15.68;118.99
64032;DHT22;50278;47.796;11.968;2022-07-06T03:07:10;15.69;118.99
64032;DHT22;50278;47.796;11.968;2022-07-06T03:09:37;15.63;118.99
64032;DHT22;50278;47.796;11.968;2022-07-06T03:12:03;15.65;118.99
64032;DHT22;50278;47.796;11.968;2022-07-06T03:14:31;15.66;118.99
64032;DHT22;50278;47.796;11.968;2022-07-06T03:16:56;15.69;118.99
64032;DHT22;50278;47.796;11.968;2022-07-06T03:19:22;15.70;118.99
64032;DHT22;50278;47.796;11.968;2022-07-06T03:21:48;15.68;118.99
64032;DHT22;50278;47.796;11.968;2022-07-06T03:24:14;15.65;118.99
64032;DHT22;50278;47.796;11.968;2022-07-06T03:26:39;15.62;118.99
64032;DHT22;50278;47.796;11.968;2022-07-06T03:29:05;15.61;118.99
64032;DHT22;50278;47.796;11.968;2022-07-06T03:31:31;15.59;118.99
64032;DHT22;50278;47.796;11.968;2022-07-06T03:33:57;15.49;118.99
64032;DHT22;50278;47.796;11.968;2022-07-06T03:36:23;15.48;118.99
64032;DHT22;50278;47.796;11.968;2022-07-06T03:38:48;15.37;118.99
64032;DHT22;50278;47.796;11.968;2022-07-06T03:41:14;15.34;118.99
64032;DHT22;50278;47.796;11.968;2022-07-06T03:43:40;15.21;118.99
64032;DHT22;50278;47.796;11.968;2022-07-06T03:46:06;15.23;118.99
64032;DHT22;50278;47.796;11.968;2022-07-06T03:48:32;15.19;118.99
64032;DHT22;50278;47.796;11.968;2022-07-06T03:51:00;15.18;118.99
64032;DHT22;50278;47.796;11.968;2022-07-06T03:53:26;15.11;118.99
64032;DHT22;50278;47.796;11.968;2022-07-06T03:55:52;15.11;118.99
64032;DHT22;50278;47.796;11.968;2022-07-06T03:58:38;15.08;118.99
64032;DHT22;50278;47.796;11.968;2022-07-06T04:01:03;15.01;118.99
64032;DHT22;50278;47.796;11.968;2022-07-06T04:03:29;15.07;118.99
64032;DHT22;50278;47.796;11.968;2022-07-06T04:05:54;15.00;118.99
64032;DHT22;50278;47.796;11.968;2022-07-06T04:08:20;15.03;118.99
64032;DHT22;50278;47.796;11.968;2022-07-06T04:10:51;15.01;118.99
64032;DHT22;50278;47.796;11.968;2022-07-06T04:13:17;14.96;118.99
64032;DHT22;50278;47.796;11.968;2022-07-06T04:15:43;14.88;118.99
64032;DHT22;50278;47.796;11.968;2022-07-06T04:18:09;14.88;118.99
64032;DHT22;50278;47.796;11.968;2022-07-06T04:20:40;14.95;118.99
64032;DHT22;50278;47.796;11.968;2022-07-06T04:23:06;15.08;118.99
64032;DHT22;50278;47.796;11.968;2022-07-06T04:25:32;15.18;118.99
64032;DHT22;50278;47.796;11.968;2022-07-06T04:28:00;15.27;118.99
64032;DHT22;50278;47.796;11.968;2022-07-06T04:30:28;15.36;118.99
64032;DHT22;50278;47.796;11.968;2022-07-06T04:32:54;15.44;118.99
64032;DHT22;50278;47.796;11.968;2022-07-06T04:35:22;15.49;118.99
64032;DHT22;50278;47.796;11.968;2022-07-06T04:37:50;15.56;118.99
64032;DHT22;50278;47.796;11.968;2022-07-06T04:40:26;15.67;118.99
64032;DHT22;50278;47.796;11.968;2022-07-06T04:42:56;15.71;118.99
64032;DHT22;50278;47.796;11.968;2022-07-06T04:45:24;15.81;118.99
64032;DHT22;50278;47.796;11.968;2022-07-06T04:47:49;15.93;118.99
64032;DHT22;50278;47.796;11.968;2022-07-06T04:50:17;16.05;118.99
64032;DHT22;50278;47.796;11.968;2022-07-06T04:52:43;16.33;118.99
64032;DHT22;50278;47.796;11.968;2022-07-06T04:58:56;16.69;118.99
64032;DHT22;50278;47.796;11.968;2022-07-06T05:01:23;16.85;118.99
64032;DHT22;50278;47.796;11.968;2022-07-06T05:03:49;17.02;118.99
64032;DHT22;50278;47.796;11.968;2022-07-06T05:06:17;17.15;118.99
64032;DHT22;50278;47.796;11.968;2022-07-06T05:08:44;17.25;118.99
64032;DHT22;50278;47.796;11.968;2022-07-06T05:11:10;17.31;118.99
64032;DHT22;50278;47.796;11.968;2022-07-06T05:13:36;17.31;118.99
64032;DHT22;50278;47.796;11.968;2022-07-06T05:16:01;17.40;118.99
64032;DHT22;50278;47.796;11.968;2022-07-06T05:18:27;17.32;118.99
64032;DHT22;50278;47.796;11.968;2022-07-06T05:20:53;17.37;118.99
64032;DHT22;50278;47.796;11.968;2022-07-06T05:23:19;17.37;118.99
64032;DHT22;50278;47.796;11.968;2022-07-06T05:25:45;17.38;118.99
64032;DHT22;50278;47.796;11.968;2022-07-06T05:28:10;17.47;118.99
64032;DHT22;50278;47.796;11.968;2022-07-06T05:30:37;17.36;118.99
64032;DHT22;50278;47.796;11.968;2022-07-06T05:33:03;17.34;118.99
64032;DHT22;50278;47.796;11.968;2022-07-06T05:35:30;17.39;118.99
64032;DHT22;50278;47.796;11.968;2022-07-06T05:37:56;17.51;118.99
64032;DHT22;50278;47.796;11.968;2022-07-06T05:40:22;17.66;118.99
64032;DHT22;50278;47.796;11.968;2022-07-06T05:42:48;17.90;118.99
64032;DHT22;50278;47.796;11.968;2022-07-06T05:45:14;17.98;118.99
64032;DHT22;50278;47.796;11.968;2022-07-06T05:47:39;18.03;118.99
64032;DHT22;50278;47.796;11.968;2022-07-06T05:50:24;18.06;118.99
64032;DHT22;50278;47.796;11.968;2022-07-06T05:52:59;18.25;118.99
64032;DHT22;50278;47.796;11.968;2022-07-06T05:55:26;18.48;118.99
64032;DHT22;50278;47.796;11.968;2022-07-06T05:57:53;18.69;118.99
64032;DHT22;50278;47.796;11.968;2022-07-06T06:00:21;18.94;118.99
64032;DHT22;50278;47.796;11.968;2022-07-06T06:02:52;19.11;118.99
64032;DHT22;50278;47.796;11.968;2022-07-06T06:05:19;19.37;118.99
64032;DHT22;50278;47.796;11.968;2022-07-06T06:07:47;19.50;118.99
64032;DHT22;50278;47.796;11.968;2022-07-06T06:10:14;19.42;118.99
64032;DHT22;50278;47.796;11.968;2022-07-06T06:12:41;19.39;118.99
64032;DHT22;50278;47.796;11.968;2022-07-06T06:15:10;19.38;118.99
64032;DHT22;50278;47.796;11.968;2022-07-06T06:17:37;19.29;118.99
64032;DHT22;50278;47.796;11.968;2022-07-06T06:20:04;19.28;118.99
64032;DHT22;50278;47.796;11.968;2022-07-06T06:22:43;19.39;118.99
64032;DHT22;50278;47.796;11.968;2022-07-06T06:25:08;19.33;118.99
64032;DHT22;50278;47.796;11.968;2022-07-06T06:27:34;19.29;118.99
64032;DHT22;50278;47.796;11.968;2022-07-06T06:30:00;19.25;118.99
64032;DHT22;50278;47.796;11.968;2022-07-06T06:32:25;19.24;118.99
64032;DHT22;50278;47.796;11.968;2022-07-06T06:34:51;19.35;118.99
64032;DHT22;50278;47.796;11.968;2022-07-06T06:37:16;19.43;118.99
64032;DHT22;50278;47.796;11.968;2022-07-06T06:39:41;19.52;118.99
64032;DHT22;50278;47.796;11.968;2022-07-06T06:42:07;19.57;118.99
64032;DHT22;50278;47.796;11.968;2022-07-06T06:44:33;19.59;118.99
64032;DHT22;50278;47.796;11.968;2022-07-06T06:46:59;19.74;118.99
64032;DHT22;50278;47.796;11.968;2022-07-06T06:49:24;19.91;118.99
64032;DHT22;50278;47.796;11.968;2022-07-06T06:51:50;19.88;118.99
64032;DHT22;50278;47.796;11.968;2022-07-06T06:54:15;20.41;118.99
64032;DHT22;50278;47.796;11.968;2022-07-06T06:56:41;20.72;118.99
64032;DHT22;50278;47.796;11.968;2022-07-06T06:59:06;21.01;118.99
64032;DHT22;50278;47.796;11.968;2022-07-06T07:01:35;21.16;118.99
64032;DHT22;50278;47.796;11.968;2022-07-06T07:08:00;21.20;118.99
64032;DHT22;50278;47.796;11.968;2022-07-06T07:10:26;21.68;118.99
64032;DHT22;50278;47.796;11.968;2022-07-06T07:13:11;21.60;118.99
64032;DHT22;50278;47.796;11.968;2022-07-06T07:15:39;21.42;118.99
64032;DHT22;50278;47.796;11.968;2022-07-06T07:18:05;21.42;118.99
64032;DHT22;50278;47.796;11.968;2022-07-06T07:20:40;21.40;118.99
64032;DHT22;50278;47.796;11.968;2022-07-06T07:23:05;21.42;118.99
64032;DHT22;50278;47.796;11.968;2022-07-06T07:25:31;21.35;118.99
64032;DHT22;50278;47.796;11.968;2022-07-06T07:27:56;21.58;118.99
64032;DHT22;50278;47.796;11.968;2022-07-06T07:30:22;21.40;118.99
64032;DHT22;50278;47.796;11.968;2022-07-06T07:32:48;21.70;118.99
64032;DHT22;50278;47.796;11.968;2022-07-06T07:35:16;21.83;118.99
64032;DHT22;50278;47.796;11.968;2022-07-06T07:37:41;21.68;118.99
64032;DHT22;50278;47.796;11.968;2022-07-06T07:40:07;21.74;118.99
64032;DHT22;50278;47.796;11.968;2022-07-06T07:42:33;21.68;118.99
64032;DHT22;50278;47.796;11.968;2022-07-06T07:44:58;21.66;118.99
64032;DHT22;50278;47.796;11.968;2022-07-06T07:47:24;21.67;118.99
64032;DHT22;50278;47.796;11.968;2022-07-06T07:49:49;21.76;118.99
64032;DHT22;50278;47.796;11.968;2022-07-06T07:52:15;21.73;118.99
64032;DHT22;50278;47.796;11.968;2022-07-06T07:54:40;21.80;118.99
64032;DHT22;50278;47.796;11.968;2022-07-06T07:57:06;21.87;118.99
64032;DHT22;50278;47.796;11.968;2022-07-06T07:59:32;22.01;118.99
64032;DHT22;50278;47.796;11.968;2022-07-06T08:01:57;22.19;118.99
64032;DHT22;50278;47.796;11.968;2022-07-06T08:04:23;22.66;118.99
64032;DHT22;50278;47.796;11.968;2022-07-06T08:06:48;22.70;118.99
64032;DHT22;50278;47.796;11.968;2022-07-06T08:09:14;22.71;118.99
64032;DHT22;50278;47.796;11.968;2022-07-06T08:11:42;22.42;118.99
64032;DHT22;50278;47.796;11.968;2022-07-06T08:14:07;22.75;118.99
64032;DHT22;50278;47.796;11.968;2022-07-06T08:16:33;22.53;118.99
64032;DHT22;50278;47.796;11.968;2022-07-06T08:18:58;22.62;118.99
64032;DHT22;50278;47.796;11.968;2022-07-06T08:21:24;22.63;118.99
64032;DHT22;50278;47.796;11.968;2022-07-06T08:23:50;22.83;118.99
64032;DHT22;50278;47.796;11.968;2022-07-06T08:26:15;22.69;118.99
64032;DHT22;50278;47.796;11.968;2022-07-06T08:28:41;22.83;118.99
64032;DHT22;50278;47.796;11.968;2022-07-06T08:31:06;22.91;118.99
64032;DHT22;50278;47.796;11.968;2022-07-06T08:33:32;22.65;118.99
64032;DHT22;50278;47.796;11.968;2022-07-06T08:35:57;22.77;118.99
64032;DHT22;50278;47.796;11.968;2022-07-06T08:38:23;22.70;118.99
64032;DHT22;50278;47.796;11.968;2022-07-06T08:40:49;22.72;118.99
64032;DHT22;50278;47.796;11.968;2022-07-06T08:43:15;23.15;118.99
64032;DHT22;50278;47.796;11.968;2022-07-06T08:45:41;23.46;118.99
64032;DHT22;50278;47.796;11.968;2022-07-06T08:48:10;23.72;118.99
64032;DHT22;50278;47.796;11.968;2022-07-06T08:50:36;23.49;118.99
64032;DHT22;50278;47.796;11.968;2022-07-06T08:53:03;23.61;116.44
64032;DHT22;50278;47.796;11.968;2022-07-06T08:55:29;23.43;118.99
64032;DHT22;50278;47.796;11.968;2022-07-06T08:57:55;23.60;118.99
64032;DHT22;50278;47.796;11.968;2022-07-06T09:00:22;23.59;118.99
64032;DHT22;50278;47.796;11.968;2022-07-06T09:02:48;23.75;118.99
64032;DHT22;50278;47.796;11.968;2022-07-06T09:05:17;23.90;118.99
64032;DHT22;50278;47.796;11.968;2022-07-06T09:07:48;23.94;116.70
64032;DHT22;50278;47.796;11.968;2022-07-06T09:10:19;24.09;112.17
64032;DHT22;50278;47.796;11.968;2022-07-06T09:12:45;24.29;103.21
64032;DHT22;50278;47.796;11.968;2022-07-06T09:15:11;24.29;113.74
64032;DHT22;50278;47.796;11.968;2022-07-06T09:17:41;24.40;105.89
64032;DHT22;50278;47.796;11.968;2022-07-06T09:20:12;24.32;110.63
64032;DHT22;50278;47.796;11.968;2022-07-06T09:22:38;24.26;107.24
64032;DHT22;50278;47.796;11.968;2022-07-06T09:25:10;23.99;102.81
64032;DHT22;50278;47.796;11.968;2022-07-06T09:27:40;23.75;115.15
64032;DHT22;50278;47.796;11.968;2022-07-06T09:30:09;24.15;113.34
64032;DHT22;50278;47.796;11.968;2022-07-06T09:32:42;24.58;96.36
64032;DHT22;50278;47.796;11.968;2022-07-06T09:35:25;24.18;91.15
64032;DHT22;50278;47.796;11.968;2022-07-06T09:38:09;24.56;99.80
64032;DHT22;50278;47.796;11.968;2022-07-06T09:40:39;24.55;98.94
64032;DHT22;50278;47.796;11.968;2022-07-06T09:43:09;24.94;91.76
64032;DHT22;50278;47.796;11.968;2022-07-06T09:45:35;25.06;97.11
64032;DHT22;50278;47.796;11.968;2022-07-06T09:48:09;24.87;105.16
64032;DHT22;50278;47.796;11.968;2022-07-06T09:50:40;25.14;103.64
64032;DHT22;50278;47.796;11.968;2022-07-06T09:53:08;25.32;103.83
64032;DHT22;50278;47.796;11.968;2022-07-06T09:55:33;25.20;98.16
64032;DHT22;50278;47.796;11.968;2022-07-06T09:57:59;25.14;107.76
64032;DHT22;50278;47.796;11.968;2022-07-06T10:00:24;25.10;98.14
64032;DHT22;50278;47.796;11.968;2022-07-06T10:02:50;25.21;91.64
64032;DHT22;50278;47.796;11.968;2022-07-06T10:05:17;25.20;90.67
64032;DHT22;50278;47.796;11.968;2022-07-06T10:07:49;25.13;86.41
64032;DHT22;50278;47.796;11.968;2022-07-06T10:10:15;25.27;91.79
64032;DHT22;50278;47.796;11.968;2022-07-06T10:12:42;25.37;76.92
64032;DHT22;50278;47.796;11.968;2022-07-06T10:15:10;25.67;76.14
64032;DHT22;50278;47.796;11.968;2022-07-06T10:17:38;26.04;75.80
64032;DHT22;50278;47.796;11.968;2022-07-06T10:20:05;26.27;71.35
64032;DHT22;50278;47.796;11.968;2022-07-06T10:22:32;26.27;78.14
64032;DHT22;50278;47.796;11.968;2022-07-06T10:24:59;25.99;72.86
64032;DHT22;50278;47.796;11.968;2022-07-06T10:27:24;26.11;84.12
64032;DHT22;50278;47.796;11.968;2022-07-06T10:29:50;26.07;78.49
64032;DHT22;50278;47.796;11.968;2022-07-06T10:32:18;26.37;72.90
64032;DHT22;50278;47.796;11.968;2022-07-06T10:34:45;26.53;76.75
64032;DHT22;50278;47.796;11.968;2022-07-06T10:37:25;26.52;68.85
64032;DHT22;50278;47.796;11.968;2022-07-06T10:39:51;25.80;82.35
64032;DHT22;50278;47.796;11.968;2022-07-06T10:42:49;25.04;77.94
64032;DHT22;50278;47.796;11.968;2022-07-06T10:53:13;25.66;72.71
64032;DHT22;50278;47.796;11.968;2022-07-06T10:55:40;26.09;76.22
64032;DHT22;50278;47.796;11.968;2022-07-06T10:58:08;26.33;76.80
64032;DHT22;50278;47.796;11.968;2022-07-06T11:00:54;26.16;71.05
64032;DHT22;50278;47.796;11.968;2022-07-06T11:03:40;26.31;76.34
64032;DHT22;50278;47.796;11.968;2022-07-06T11:06:20;26.17;63.82
64032;DHT22;50278;47.796;11.968;2022-07-06T11:08:50;26.23;62.10
64032;DHT22;50278;47.796;11.968;2022-07-06T11:11:17;26.26;60.82
64032;DHT22;50278;47.796;11.968;2022-07-06T11:13:47;26.30;62.06
64032;DHT22;50278;47.796;11.968;2022-07-06T11:16:15;26.45;71.17
64032;DHT22;50278;47.796;11.968;2022-07-06T11:18:49;26.54;67.39
64032;DHT22;50278;47.796;11.968;2022-07-06T11:22:17;27.06;68.14
64032;DHT22;50278;47.796;11.968;2022-07-06T11:24:18;27.29;62.86
64032;DHT22;50278;47.796;11.968;2022-07-06T11:26:46;26.92;63.56
64032;DHT22;50278;47.796;11.968;2022-07-06T11:29:12;26.71;60.85
64032;DHT22;50278;47.796;11.968;2022-07-06T11:31:43;26.46;54.54
64032;DHT22;50278;47.796;11.968;2022-07-06T11:34:12;27.51;47.11
64032;DHT22;50278;47.796;11.968;2022-07-06T11:36:39;27.50;46.90
64032;DHT22;50278;47.796;11.968;2022-07-06T11:39:06;27.89;44.71
64032;DHT22;50278;47.796;11.968;2022-07-06T11:41:32;28.42;43.55
64032;DHT22;50278;47.796;11.968;2022-07-06T11:43:58;28.34;49.18
64032;DHT22;50278;47.796;11.968;2022-07-06T11:46:28;29.58;39.13
64032;DHT22;50278;47.796;11.968;2022-07-06T11:48:58;29.48;38.74
64032;DHT22;50278;47.796;11.968;2022-07-06T11:51:27;30.07;37.95
64032;DHT22;50278;47.796;11.968;2022-07-06T11:53:55;30.44;33.34
64032;DHT22;50278;47.796;11.968;2022-07-06T11:56:22;30.63;32.16
64032;DHT22;50278;47.796;11.968;2022-07-06T11:58:52;30.69;35.63
64032;DHT22;50278;47.796;11.968;2022-07-06T12:01:18;31.52;35.18
64032;DHT22;50278;47.796;11.968;2022-07-06T12:03:44;31.54;31.93
64032;DHT22;50278;47.796;11.968;2022-07-06T12:06:22;30.16;35.10
64032;DHT22;50278;47.796;11.968;2022-07-06T12:11:23;28.72;46.23
64032;DHT22;50278;47.796;11.968;2022-07-06T12:13:50;30.44;40.32
64032;DHT22;50278;47.796;11.968;2022-07-06T12:16:16;31.15;41.03
64032;DHT22;50278;47.796;11.968;2022-07-06T12:18:47;33.19;31.50
64032;DHT22;50278;47.796;11.968;2022-07-06T12:21:14;32.14;35.60
64032;DHT22;50278;47.796;11.968;2022-07-06T12:23:47;31.38;38.15
64032;DHT22;50278;47.796;11.968;2022-07-06T12:26:14;30.98;39.00
64032;DHT22;50278;47.796;11.968;2022-07-06T12:28:40;31.07;37.62
64032;DHT22;50278;47.796;11.968;2022-07-06T12:31:06;32.79;33.50
64032;DHT22;50278;47.796;11.968;2022-07-06T12:33:32;33.36;31.36
64032;DHT22;50278;47.796;11.968;2022-07-06T12:36:17;33.36;27.88
64032;DHT22;50278;47.796;11.968;2022-07-06T12:38:47;32.55;27.28
64032;DHT22;50278;47.796;11.968;2022-07-06T12:41:30;32.87;27.33
64032;DHT22;50278;47.796;11.968;2022-07-06T12:44:08;33.48;30.84
64032;DHT22;50278;47.796;11.968;2022-07-06T12:46:39;32.88;29.21
64032;DHT22;50278;47.796;11.968;2022-07-06T12:49:30;31.20;33.05
64032;DHT22;50278;47.796;11.968;2022-07-06T12:51:57;29.32;34.60
64032;DHT22;50278;47.796;11.968;2022-07-06T12:54:26;31.51;28.77
64032;DHT22;50278;47.796;11.968;2022-07-06T12:59:37;31.39;33.10
64032;DHT22;50278;47.796;11.968;2022-07-06T13:02:06;32.71;27.82
64032;DHT22;50278;47.796;11.968;2022-07-06T13:04:33;32.83;29.86
64032;DHT22;50278;47.796;11.968;2022-07-06T13:07:00;31.34;31.60
64032;DHT22;50278;47.796;11.968;2022-07-06T13:09:27;29.93;34.02
64032;DHT22;50278;47.796;11.968;2022-07-06T13:11:59;30.27;34.44
64032;DHT22;50278;47.796;11.968;2022-07-06T13:14:31;29.24;36.76
64032;DHT22;50278;47.796;11.968;2022-07-06T13:16:56;27.75;43.24
64032;DHT22;50278;47.796;11.968;2022-07-06T13:19:22;27.99;40.35
64032;DHT22;50278;47.796;11.968;2022-07-06T13:21:47;27.76;41.26
64032;DHT22;50278;47.796;11.968;2022-07-06T13:24:13;29.31;34.58
64032;DHT22;50278;47.796;11.968;2022-07-06T13:26:39;30.19;31.90
64032;DHT22;50278;47.796;11.968;2022-07-06T13:29:04;31.33;32.46
64032;DHT22;50278;47.796;11.968;2022-07-06T13:31:30;30.68;34.98
64032;DHT22;50278;47.796;11.968;2022-07-06T13:33:56;32.09;31.60
64032;DHT22;50278;47.796;11.968;2022-07-06T13:36:22;30.82;34.17
64032;DHT22;50278;47.796;11.968;2022-07-06T13:38:48;30.23;32.95
64032;DHT22;50278;47.796;11.968;2022-07-06T13:41:13;29.94;33.31
64032;DHT22;50278;47.796;11.968;2022-07-06T13:43:39;29.63;33.06
64032;DHT22;50278;47.796;11.968;2022-07-06T13:46:06;28.63;40.26
64032;DHT22;50278;47.796;11.968;2022-07-06T13:48:32;29.42;34.82
64032;DHT22;50278;47.796;11.968;2022-07-06T13:50:59;29.02;35.62
64032;DHT22;50278;47.796;11.968;2022-07-06T13:53:24;29.29;34.92
64032;DHT22;50278;47.796;11.968;2022-07-06T13:55:50;29.39;35.62
64032;DHT22;50278;47.796;11.968;2022-07-06T13:58:16;29.13;35.59
64032;DHT22;50278;47.796;11.968;2022-07-06T14:00:41;29.46;31.99
64032;DHT22;50278;47.796;11.968;2022-07-06T14:03:07;29.01;36.68
64032;DHT22;50278;47.796;11.968;2022-07-06T14:05:34;28.53;39.44
64032;DHT22;50278;47.796;11.968;2022-07-06T14:07:59;27.86;42.74
64032;DHT22;50278;47.796;11.968;2022-07-06T14:10:25;28.38;39.65
64032;DHT22;50278;47.796;11.968;2022-07-06T14:12:51;28.89;38.30
64032;DHT22;50278;47.796;11.968;2022-07-06T14:15:16;30.03;36.69
64032;DHT22;50278;47.796;11.968;2022-07-06T14:17:42;29.42;35.62
64032;DHT22;50278;47.796;11.968;2022-07-06T14:20:08;28.54;41.07
64032;DHT22;50278;47.796;11.968;2022-07-06T14:22:34;28.46;42.18
64032;DHT22;50278;47.796;11.968;2022-07-06T14:24:59;27.98;48.17
64032;DHT22;50278;47.796;11.968;2022-07-06T14:27:25;29.28;41.09
64032;DHT22;50278;47.796;11.968;2022-07-06T14:29:50;31.67;32.02
64032;DHT22;50278;47.796;11.968;2022-07-06T14:32:16;31.36;34.99
64032;DHT22;50278;47.796;11.968;2022-07-06T14:34:43;31.05;35.59
64032;DHT22;50278;47.796;11.968;2022-07-06T14:37:08;29.97;39.79
64032;DHT22;50278;47.796;11.968;2022-07-06T14:39:34;30.39;34.59
64032;DHT22;50278;47.796;11.968;2022-07-06T14:41:59;30.00;39.21
64032;DHT22;50278;47.796;11.968;2022-07-06T14:44:25;30.70;36.28
64032;DHT22;50278;47.796;11.968;2022-07-06T14:46:52;30.23;38.70
64032;DHT22;50278;47.796;11.968;2022-07-06T14:49:17;29.60;37.50
64032;DHT22;50278;47.796;11.968;2022-07-06T14:51:43;30.06;43.01
64032;DHT22;50278;47.796;11.968;2022-07-06T14:54:09;30.09;37.56
64032;DHT22;50278;47.796;11.968;2022-07-06T14:56:35;29.30;37.22
64032;DHT22;50278;47.796;11.968;2022-07-06T14:59:00;28.54;38.25
64032;DHT22;50278;47.796;11.968;2022-07-06T15:01:26;29.28;37.19
64032;DHT22;50278;47.796;11.968;2022-07-06T15:03:51;28.20;42.62
64032;DHT22;50278;47.796;11.968;2022-07-06T15:06:17;27.84;48.67
64032;DHT22;50278;47.796;11.968;2022-07-06T15:08:43;27.63;48.34
64032;DHT22;50278;47.796;11.968;2022-07-06T15:11:09;28.57;41.78
64032;DHT22;50278;47.796;11.968;2022-07-06T15:13:34;30.71;34.84
64032;DHT22;50278;47.796;11.968;2022-07-06T15:15:59;30.37;35.92
64032;DHT22;50278;47.796;11.968;2022-07-06T15:18:25;30.41;34.86
64032;DHT22;50278;47.796;11.968;2022-07-06T15:20:54;29.33;38.56
64032;DHT22;50278;47.796;11.968;2022-07-06T15:23:31;28.93;40.40
64032;DHT22;50278;47.796;11.968;2022-07-06T15:25:56;28.62;43.78
64032;DHT22;50278;47.796;11.968;2022-07-06T15:28:23;28.26;51.17
64032;DHT22;50278;47.796;11.968;2022-07-06T15:30:50;28.05;44.51